createdAt,value
2022-12-17T00:05:19.760Z,56.8
2022-12-17T00:10:45.705Z,56.8
2022-12-17T00:16:13.632Z,56.7
2022-12-17T00:21:52.923Z,56.7
2022-12-17T00:27:23.644Z,56.6
2022-12-17T00:33:03.128Z,56.6
2022-12-17T00:38:41.802Z,56.5
2022-12-17T00:44:07.834Z,56.4
2022-12-17T00:49:31.088Z,56.4
2022-12-17T00:54:56.045Z,56.4
2022-12-17T01:00:37.320Z,56.3
2022-12-17T01:05:49.293Z,56.3
2022-12-17T01:11:29.293Z,56.3
2022-12-17T01:16:56.266Z,56.1
2022-12-17T01:22:20.852Z,56.1
2022-12-17T01:28:02.952Z,56.1
2022-12-17T01:33:47.896Z,56
2022-12-17T01:39:25.650Z,55.9
2022-12-17T01:45:03.829Z,55.9
2022-12-17T01:50:42.519Z,55.9
2022-12-17T01:56:04.635Z,55.8
2022-12-17T02:01:11.069Z,55.8
2022-12-17T02:06:34.917Z,55.7
2022-12-17T02:11:56.208Z,55.6
2022-12-17T02:17:19.302Z,55.6
2022-12-17T02:22:57.476Z,55.6
2022-12-17T02:28:19.670Z,55.5
2022-12-17T02:33:57.726Z,55.7
2022-12-17T02:39:37.639Z,56.4
2022-12-17T02:45:16.712Z,57.5
2022-12-17T02:56:00.886Z,59.6
2022-12-17T03:01:41.496Z,60.6
2022-12-17T03:07:55.420Z,61.5
2022-12-17T03:13:34.406Z,61.7
2022-12-17T03:19:12.946Z,62
2022-12-17T03:24:50.978Z,62.2
2022-12-17T03:30:32.103Z,62.4
2022-12-17T03:35:57.543Z,62.4
2022-12-17T03:41:34.168Z,62.4
2022-12-17T03:47:12.018Z,62.4
2022-12-17T03:52:33.478Z,62.4
2022-12-17T03:58:10.485Z,62.3
2022-12-17T04:03:51.039Z,62.3
2022-12-17T04:09:34.693Z,62.3
2022-12-17T04:15:17.521Z,62.2
2022-12-17T04:20:56.383Z,62.2
2022-12-17T04:26:17.398Z,62.1
2022-12-17T04:31:54.649Z,62.1
2022-12-17T04:37:39.248Z,62.1
2022-12-17T04:43:16.667Z,62
2022-12-17T04:48:54.501Z,62
2022-12-17T04:54:17.494Z,61.9
2022-12-17T04:59:54.830Z,61.9
2022-12-17T05:05:18.716Z,61.8
2022-12-17T05:10:57.250Z,61.8
2022-12-17T05:16:42.073Z,61.8
2022-12-17T05:22:22.982Z,61.8
2022-12-17T05:28:03.254Z,61.7
2022-12-17T05:33:46.483Z,61.6
2022-12-17T05:39:24.637Z,61.6
2022-12-17T05:45:03.130Z,61.6
2022-12-17T05:50:41.349Z,61.5
2022-12-17T05:56:07.171Z,61.4
2022-12-17T06:01:51.698Z,61.4
2022-12-17T06:07:15.035Z,61.4
2022-12-17T06:12:52.764Z,61.3
2022-12-17T06:18:17.003Z,61.3
2022-12-17T06:23:39.663Z,61.2
2022-12-17T06:29:17.725Z,61.2
2022-12-17T06:34:56.476Z,61.1
2022-12-17T06:40:36.748Z,61.1
2022-12-17T06:46:19.285Z,61.1
2022-12-17T06:51:58.670Z,61
2022-12-17T06:57:40.766Z,60.9
2022-12-17T07:03:19.812Z,60.9
2022-12-17T07:08:58.462Z,60.9
2022-12-17T07:14:44.649Z,60.8
2022-12-17T07:20:06.192Z,60.8
2022-12-17T07:25:28.938Z,60.8
2022-12-17T07:31:12.387Z,60.7
2022-12-17T07:36:50.691Z,60.6
2022-12-17T07:42:29.269Z,60.6
2022-12-17T07:48:08.069Z,60.6
2022-12-17T07:53:44.901Z,60.5
2022-12-17T07:59:12.269Z,60.4
2022-12-17T08:04:52.533Z,60.4
2022-12-17T08:10:34.421Z,60.4
2022-12-17T08:15:47.706Z,60.3
2022-12-17T08:21:18.079Z,60.3
2022-12-17T08:27:03.578Z,60.3
2022-12-17T08:33:17.740Z,60.2
2022-12-17T08:38:56.158Z,60.1
2022-12-17T08:44:38.997Z,60.1
2022-12-17T08:50:19.299Z,60
2022-12-17T08:55:57.060Z,60
2022-12-17T09:01:35.399Z,59.9
2022-12-17T09:07:16.108Z,59.9
2022-12-17T09:12:53.697Z,59.8
2022-12-17T09:18:31.562Z,59.8
2022-12-17T09:24:11.083Z,59.8
2022-12-17T09:29:54.178Z,59.7
2022-12-17T09:35:36.076Z,59.6
2022-12-17T09:41:20.867Z,59.6
2022-12-17T09:46:48.614Z,59.6
2022-12-17T09:52:15.043Z,59.5
2022-12-17T09:57:38.256Z,59.5
2022-12-17T10:03:17.804Z,59.4
2022-12-17T10:08:58.504Z,59.4
2022-12-17T10:14:42.415Z,59.3
2022-12-17T10:20:20.871Z,59.3
2022-12-17T10:26:02.568Z,59.2
2022-12-17T10:31:29.858Z,59.2
2022-12-17T10:37:07.154Z,59.1
2022-12-17T10:42:50.887Z,59.1
2022-12-17T10:48:29.348Z,59.1
2022-12-17T10:54:12.590Z,59
2022-12-17T10:59:54.490Z,58.9
2022-12-17T11:05:25.485Z,58.9
2022-12-17T11:11:15.485Z,58.9
2022-12-17T11:17:02.498Z,58.8
2022-12-17T11:22:42.727Z,58.8
2022-12-17T11:28:20.432Z,58.7
2022-12-17T11:33:58.009Z,58.7
2022-12-17T11:39:46.399Z,58.6
2022-12-17T11:50:34.874Z,58.5
2022-12-17T11:56:19.420Z,58.5
2022-12-17T12:02:05.788Z,58.4
2022-12-17T12:07:51.325Z,58.4
2022-12-17T12:13:29.429Z,58.4
2022-12-17T12:19:08.059Z,58.3
2022-12-17T12:24:47.367Z,58.3
2022-12-17T12:30:31.638Z,58.2
2022-12-17T12:36:15.168Z,58.2
2022-12-17T12:41:53.353Z,58.1
2022-12-17T12:47:31.577Z,58.1
2022-12-17T12:53:13.428Z,58.1
2022-12-17T12:58:56.610Z,58
2022-12-17T13:04:41.038Z,58
2022-12-17T13:10:07.968Z,57.9
2022-12-17T13:15:50.055Z,57.9
2022-12-17T13:21:29.002Z,57.8
2022-12-17T13:27:12.758Z,57.8
2022-12-17T13:38:21.575Z,57.7
2022-12-17T13:44:01.379Z,57.6
2022-12-17T13:49:38.549Z,57.6
2022-12-17T13:55:54.255Z,57.6
2022-12-17T14:01:35.043Z,57.5
2022-12-17T14:07:44.882Z,57.5
2022-12-17T14:13:22.765Z,57.4
2022-12-17T14:19:03.970Z,57.4
2022-12-17T14:24:29.859Z,57.3
2022-12-17T14:30:13.597Z,57.3
2022-12-17T14:36:39.297Z,57.3
2022-12-17T14:42:38.374Z,57.2
2022-12-17T14:48:20.242Z,57.1
2022-12-17T14:53:58.438Z,57.1
2022-12-17T14:59:36.415Z,57.1
2022-12-17T15:05:21.348Z,57
2022-12-17T15:10:43.647Z,57
2022-12-17T15:16:09.606Z,56.9
2022-12-17T15:21:52.924Z,56.9
2022-12-17T15:27:08.157Z,56.9
2022-12-17T15:32:34.036Z,56.8
2022-12-17T15:38:15.500Z,56.8
2022-12-17T15:43:56.070Z,56.8
2022-12-17T15:49:39.129Z,56.7
2022-12-17T15:55:19.212Z,56.6
2022-12-17T16:00:43.321Z,56.6
2022-12-17T16:06:14.437Z,56.6
2022-12-17T16:11:58.203Z,56.5
2022-12-17T16:17:09.993Z,56.4
2022-12-17T16:22:52.471Z,56.4
2022-12-17T16:28:16.025Z,56.4
2022-12-17T16:34:00.892Z,56.4
2022-12-17T16:39:39.246Z,56.3
2022-12-17T16:45:21.897Z,56.3
2022-12-17T16:51:01.267Z,56.2
2022-12-17T16:56:51.671Z,56.1
2022-12-17T17:02:15.332Z,56.1
2022-12-17T17:07:58.277Z,56.1
2022-12-17T17:13:36.529Z,56
2022-12-17T17:19:35.767Z,56
2022-12-17T17:25:14.018Z,55.9
2022-12-17T17:31:12.063Z,55.9
2022-12-17T17:37:30.733Z,55.8
2022-12-17T17:43:09.941Z,55.8
2022-12-17T17:48:50.632Z,55.8
2022-12-17T17:55:07.607Z,55.7
2022-12-17T18:00:51.930Z,55.7
2022-12-17T18:06:31.763Z,55.6
2022-12-17T18:12:45.095Z,55.6
2022-12-17T18:18:40.669Z,55.5
2022-12-17T18:24:18.365Z,55.5
2022-12-17T18:29:57.048Z,55.4
2022-12-17T18:35:19.958Z,55.4
2022-12-17T18:41:03.116Z,55.4
2022-12-17T18:46:42.385Z,55.3
2022-12-17T18:52:32.761Z,55.3
2022-12-17T18:58:40.212Z,55.3
2022-12-17T19:04:19.695Z,55.2
2022-12-17T19:10:02.585Z,55.1
2022-12-17T19:15:42.034Z,55.1
2022-12-17T19:21:20.761Z,55.1
2022-12-17T19:32:24.895Z,54.9
2022-12-17T19:38:07.571Z,54.9
2022-12-17T19:43:45.564Z,54.9
2022-12-17T19:49:24.523Z,54.8
2022-12-17T19:55:12.485Z,54.8
2022-12-17T20:00:50.063Z,54.7
2022-12-17T20:06:30.943Z,54.7
2022-12-17T20:12:09.764Z,54.6
2022-12-17T20:17:52.218Z,54.6
2022-12-17T20:23:30.187Z,54.6
2022-12-17T20:28:52.428Z,54.5
2022-12-17T20:34:19.196Z,54.4
2022-12-17T20:39:44.522Z,54.4
2022-12-17T20:45:26.532Z,54.7
2022-12-17T20:50:49.311Z,55.5
2022-12-17T20:56:32.502Z,56.4
2022-12-17T21:02:13.155Z,57.4
2022-12-17T21:07:51.851Z,58.5
2022-12-17T21:13:20.651Z,59.3
2022-12-17T21:18:36.046Z,59.4
2022-12-17T21:24:08.125Z,59.4
2022-12-17T21:29:19.655Z,59.4
2022-12-17T21:34:00.715Z,59.4
2022-12-17T21:39:30.095Z,59.3
2022-12-17T21:45:10.598Z,59.3
2022-12-17T21:50:56.038Z,59.3
2022-12-17T21:56:20.343Z,59.3
2022-12-17T22:02:07.191Z,59.3
2022-12-17T22:08:39.649Z,59.1
2022-12-17T22:15:14.754Z,59.1
2022-12-17T22:20:49.649Z,59.1
2022-12-17T22:26:02.404Z,59.1
2022-12-17T22:31:26.908Z,59
2022-12-17T22:47:30.974Z,58.9
2022-12-17T22:53:59.832Z,58.9
2022-12-17T23:00:43.992Z,58.8
2022-12-17T23:06:29.897Z,58.8
2022-12-17T23:12:08.067Z,58.7
2022-12-17T23:17:46.221Z,58.7
2022-12-17T23:23:11.642Z,58.6
2022-12-17T23:28:48.663Z,58.6
2022-12-17T23:39:53.767Z,58.5
2022-12-17T23:45:32.552Z,58.5
2022-12-17T23:51:15.015Z,58.4
2022-12-17T23:56:53.832Z,58.4
